Time;durP1;ratioP1;P1;durP2;ratioP2;P2;SDS_P1;SDS_P2;PMS_P1;PMS_P2;Temp;Humidity;BMP_temperature;BMP_pressure;BME280_temperature;BME280_humidity;BME280_pressure;Samples;Min_cycle;Max_cycle;Signal;HPM_P1;HPM_P2
2021/09/19 00:01:27;;;;;;;8.52;3.22;;;;;;;21.97;43.69;100148.28;4902902;29;20111;-68
2021/09/19 00:03:53;;;;;;;11.07;3.97;;;;;;;21.88;43.40;100146.94;4898297;29;20033;-71
2021/09/19 00:06:19;;;;;;;6.15;3.30;;;;;;;21.65;43.54;100159.66;4904797;29;20036;-72
2021/09/19 00:08:45;;;;;;;14.52;3.15;;;;;;;21.63;43.46;100152.66;4904807;29;20040;-71
2021/09/19 00:11:10;;;;;;;7.63;4.03;;;;;;;21.53;43.03;100136.25;4905263;29;20058;-72
2021/09/19 00:13:36;;;;;;;12.25;3.90;;;;;;;21.77;43.95;100151.97;4901886;29;20033;-72
2021/09/19 00:16:01;;;;;;;5.30;3.33;;;;;;;21.62;44.09;100126.91;4906238;29;20036;-72
2021/09/19 00:18:27;;;;;;;6.95;3.83;;;;;;;21.71;44.49;100158.50;4910734;29;20563;-71
2021/09/19 00:20:52;;;;;;;5.72;3.05;;;;;;;21.67;44.43;100146.22;4901741;29;20039;-73
2021/09/19 00:23:18;;;;;;;11.10;3.85;;;;;;;21.58;44.83;100160.91;4925459;29;20032;-72
2021/09/19 00:25:43;;;;;;;5.20;3.20;;;;;;;21.56;45.30;100162.78;4905779;29;20107;-71
2021/09/19 00:28:09;;;;;;;7.85;3.90;;;;;;;21.45;45.20;100166.00;4904987;29;20123;-73
2021/09/19 00:30:34;;;;;;;11.02;3.83;;;;;;;20.99;44.29;100140.63;4904807;29;20115;-73
2021/09/19 00:33:00;;;;;;;7.28;3.20;;;;;;;21.38;44.35;100166.34;4903204;29;20119;-72
2021/09/19 00:35:27;;;;;;;7.03;3.88;;;;;;;21.11;43.55;100147.19;4903910;29;20414;-72
2021/09/19 00:37:53;;;;;;;7.80;3.72;;;;;;;21.15;43.54;100170.13;4898099;29;20123;-71
2021/09/19 00:40:19;;;;;;;5.25;3.00;;;;;;;21.27;42.92;100178.38;4905848;29;20076;-72
2021/09/19 00:42:44;;;;;;;8.48;3.05;;;;;;;21.12;42.59;100179.13;4904799;29;20487;-71
2021/09/19 00:45:13;;;;;;;11.23;3.30;;;;;;;20.85;42.61;100154.63;4900462;29;20024;-73
2021/09/19 00:47:39;;;;;;;6.25;3.60;;;;;;;20.84;43.30;100166.22;4899280;29;20060;-74
2021/09/19 00:50:08;;;;;;;10.70;3.15;;;;;;;21.04;43.85;100181.28;4908628;29;20035;-72
2021/09/19 00:52:34;;;;;;;7.25;3.92;;;;;;;20.65;43.20;100152.88;4910498;29;20100;-71
2021/09/19 00:55:00;;;;;;;4.88;2.90;;;;;;;20.73;43.15;100156.03;4898864;29;20044;-71
2021/09/19 00:57:28;;;;;;;5.07;2.33;;;;;;;20.80;42.68;100176.16;4899154;29;20057;-72
2021/09/19 00:59:54;;;;;;;4.28;3.20;;;;;;;20.94;42.28;100172.00;4898467;29;20041;-71
2021/09/19 01:02:21;;;;;;;5.18;2.95;;;;;;;21.08;42.59;100173.06;4907329;29;20052;-72
2021/09/19 01:04:48;;;;;;;5.38;3.47;;;;;;;20.99;43.30;100152.16;4907026;29;20032;-72
2021/09/19 01:07:14;;;;;;;9.63;3.15;;;;;;;21.10;43.18;100169.47;4908497;29;20036;-72
2021/09/19 01:09:41;;;;;;;3.80;2.53;;;;;;;20.91;42.57;100156.13;4906691;29;20060;-72
2021/09/19 01:12:10;;;;;;;5.57;2.97;;;;;;;21.01;42.40;100184.97;4904147;29;20043;-73
2021/09/19 01:14:38;;;;;;;4.05;2.17;;;;;;;20.94;41.81;100164.00;4896919;29;20033;-72
2021/09/19 01:17:05;;;;;;;3.60;2.25;;;;;;;20.93;42.07;100188.91;4902274;29;20047;-72
2021/09/19 01:19:34;;;;;;;7.03;3.63;;;;;;;20.75;42.36;100178.19;4898423;29;20528;-72
2021/09/19 01:22:00;;;;;;;4.18;2.40;;;;;;;20.72;42.60;100175.66;4906499;29;20103;-75
2021/09/19 01:24:27;;;;;;;6.00;2.75;;;;;;;20.66;43.14;100186.59;4908530;29;20040;-78
2021/09/19 01:26:53;;;;;;;4.55;2.75;;;;;;;20.64;42.70;100180.47;4898343;29;20105;-70
2021/09/19 01:29:19;;;;;;;4.30;2.53;;;;;;;20.48;42.75;100160.72;4905764;29;20521;-75
2021/09/19 01:31:45;;;;;;;3.67;2.05;;;;;;;20.64;42.56;100175.13;4905867;29;20039;-71
2021/09/19 01:34:10;;;;;;;4.38;2.85;;;;;;;20.69;42.17;100170.44;4900098;29;20068;-70
2021/09/19 01:36:36;;;;;;;6.63;3.10;;;;;;;20.24;42.76;100150.22;4903053;29;20024;-69
2021/09/19 01:39:05;;;;;;;4.82;2.42;;;;;;;20.42;42.49;100183.22;4909367;29;20039;-70
2021/09/19 01:41:30;;;;;;;6.03;2.78;;;;;;;20.27;43.02;100183.88;4932201;28;20032;-71
2021/09/19 01:43:56;;;;;;;12.68;3.30;;;;;;;20.48;42.82;100174.06;4914598;29;20067;-79
2021/09/19 01:46:21;;;;;;;3.97;2.58;;;;;;;20.27;43.50;100155.41;4904070;29;20051;-71
2021/09/19 01:48:47;;;;;;;3.80;2.40;;;;;;;20.49;42.91;100174.00;4896019;29;20040;-71
2021/09/19 01:51:12;;;;;;;9.15;2.72;;;;;;;20.23;43.57;100178.69;4899259;29;20131;-71
2021/09/19 01:53:39;;;;;;;5.15;2.22;;;;;;;20.23;42.64;100159.19;4902926;29;20056;-73
2021/09/19 01:56:05;;;;;;;3.38;2.22;;;;;;;20.15;43.05;100146.16;4910391;29;20032;-72
2021/09/19 01:58:31;;;;;;;3.78;2.30;;;;;;;20.18;43.22;100175.38;4909363;29;20165;-73
2021/09/19 02:00:59;;;;;;;3.10;2.38;;;;;;;20.29;42.67;100164.22;4902919;29;20114;-72
2021/09/19 02:03:25;;;;;;;5.70;3.00;;;;;;;20.10;43.38;100174.81;4908787;29;20796;-71
2021/09/19 02:05:50;;;;;;;3.10;1.92;;;;;;;20.07;42.92;100169.63;4910817;29;20040;-71
2021/09/19 02:08:16;;;;;;;3.58;2.03;;;;;;;20.18;43.03;100193.13;4942309;28;20086;-72
2021/09/19 02:10:42;;;;;;;6.13;2.25;;;;;;;20.19;42.69;100154.91;4910599;29;20040;-69
2021/09/19 02:13:07;;;;;;;3.35;1.92;;;;;;;20.09;43.42;100183.75;4907207;29;20123;-72
2021/09/19 02:15:33;;;;;;;4.53;2.00;;;;;;;20.05;43.20;100186.63;4900665;29;20131;-71
2021/09/19 02:17:58;;;;;;;4.38;2.28;;;;;;;19.94;43.12;100184.41;4905751;29;20039;-72
2021/09/19 02:20:24;;;;;;;7.57;2.63;;;;;;;19.93;43.15;100186.19;4911738;29;20046;-74
2021/09/19 02:22:49;;;;;;;5.45;2.92;;;;;;;19.74;43.96;100191.44;4908315;29;20047;-75
2021/09/19 02:25:15;;;;;;;4.93;2.42;;;;;;;19.88;43.50;100161.56;4901199;29;20068;-72
2021/09/19 02:27:40;;;;;;;7.35;2.40;;;;;;;19.94;43.28;100169.28;4902751;29;20446;-72
2021/09/19 02:30:09;;;;;;;7.90;2.28;;;;;;;19.66;43.22;100187.31;4910951;29;20544;-71
2021/09/19 02:32:35;;;;;;;2.85;1.83;;;;;;;19.55;43.46;100174.44;4903708;29;20138;-71
2021/09/19 02:35:00;;;;;;;3.22;1.80;;;;;;;19.72;43.06;100173.78;4911197;29;20047;-72
2021/09/19 02:37:26;;;;;;;4.47;2.58;;;;;;;19.76;43.37;100192.25;4902997;29;20036;-71
2021/09/19 02:39:52;;;;;;;4.45;2.40;;;;;;;20.07;42.73;100196.25;4906576;29;20044;-71
2021/09/19 02:42:18;;;;;;;4.35;2.63;;;;;;;19.88;42.54;100180.22;4935527;28;20044;-71
2021/09/19 02:44:43;;;;;;;5.88;2.80;;;;;;;19.77;43.15;100193.09;4909308;29;20549;-72
2021/09/19 02:47:09;;;;;;;3.58;1.73;;;;;;;19.21;43.58;100166.97;4914050;29;20036;-71
2021/09/19 02:49:34;;;;;;;4.15;2.20;;;;;;;19.29;43.94;100192.34;4909073;29;20032;-73
2021/09/19 02:52:00;;;;;;;3.78;2.33;;;;;;;19.53;44.02;100186.97;4939471;28;20550;-70
2021/09/19 02:54:26;;;;;;;4.10;2.58;;;;;;;19.53;43.55;100173.66;4906884;29;20040;-71
2021/09/19 02:56:51;;;;;;;6.97;2.17;;;;;;;19.50;43.65;100203.03;4897105;29;20074;-72
2021/09/19 02:59:18;;;;;;;16.42;2.25;;;;;;;19.63;43.53;100195.44;4908596;29;20047;-70
2021/09/19 03:01:43;;;;;;;3.28;2.15;;;;;;;19.61;43.63;100201.66;4902627;29;20363;-72
2021/09/19 03:04:09;;;;;;;3.22;2.15;;;;;;;19.59;43.78;100205.31;4905865;29;20035;-72
2021/09/19 03:06:34;;;;;;;5.00;2.65;;;;;;;19.18;44.55;100178.59;4904161;29;20128;-73
2021/09/19 03:09:00;;;;;;;7.32;2.50;;;;;;;19.16;44.64;100196.41;4909331;29;20037;-71
2021/09/19 03:11:25;;;;;;;7.75;2.67;;;;;;;18.93;45.13;100192.81;4912304;29;20227;-71
2021/09/19 03:13:57;;;;;;;2.67;2.10;;;;;;;18.79;45.44;100162.38;4904864;29;20088;-72
2021/09/19 03:16:22;;;;;;;3.60;2.22;;;;;;;18.76;45.67;100195.22;4901062;29;20099;-73
2021/09/19 03:18:48;;;;;;;3.55;2.08;;;;;;;18.75;45.68;100201.44;4905451;29;20570;-73
2021/09/19 03:21:14;;;;;;;4.65;2.85;;;;;;;18.74;45.54;100184.63;4907204;29;20040;-72
2021/09/19 03:23:40;;;;;;;3.67;2.05;;;;;;;18.83;45.22;100167.53;4908838;29;20059;-73
2021/09/19 03:26:06;;;;;;;4.75;2.60;;;;;;;18.82;45.27;100160.44;4899154;29;20036;-72
2021/09/19 03:28:32;;;;;;;8.95;2.33;;;;;;;18.94;45.03;100164.44;4905552;29;20040;-72
2021/09/19 03:30:58;;;;;;;3.88;2.58;;;;;;;19.27;45.29;100191.53;4909106;29;20036;-72
2021/09/19 03:33:23;;;;;;;4.15;2.22;;;;;;;18.88;45.56;100159.38;4909522;29;20591;-70
2021/09/19 03:35:49;;;;;;;5.90;2.75;;;;;;;19.13;45.01;100160.16;4910067;29;20411;-72
2021/09/19 03:38:14;;;;;;;4.32;2.33;;;;;;;19.19;45.16;100196.28;4909481;29;20032;-71
2021/09/19 03:40:40;;;;;;;6.82;2.42;;;;;;;18.78;45.71;100169.50;4908874;29;20054;-72
2021/09/19 03:43:05;;;;;;;5.63;2.63;;;;;;;19.02;44.95;100170.34;4904976;29;20497;-71
2021/09/19 03:45:31;;;;;;;6.97;2.45;;;;;;;19.28;45.08;100201.22;4903231;29;20088;-71
2021/09/19 03:48:02;;;;;;;5.95;2.90;;;;;;;18.93;45.87;100198.13;4906074;29;20040;-71
2021/09/19 03:50:27;;;;;;;4.85;2.50;;;;;;;18.75;46.22;100173.09;4909325;29;20032;-74
2021/09/19 03:52:53;;;;;;;4.70;2.80;;;;;;;18.75;46.23;100174.88;4906872;29;20037;-71
2021/09/19 03:55:18;;;;;;;4.70;2.35;;;;;;;18.67;46.28;100201.75;4903916;29;20127;-73
2021/09/19 03:57:44;;;;;;;4.57;2.42;;;;;;;18.85;46.01;100208.22;4898450;29;20048;-73
2021/09/19 04:00:10;;;;;;;7.80;2.78;;;;;;;18.22;47.14;100197.16;4904239;29;20043;-72
2021/09/19 04:02:35;;;;;;;4.30;2.45;;;;;;;18.33;46.91;100194.13;4911572;29;20032;-71
2021/09/19 04:05:00;;;;;;;5.38;2.95;;;;;;;18.42;46.75;100182.31;4909407;29;20309;-73
2021/09/19 04:07:26;;;;;;;6.80;2.70;;;;;;;18.71;46.61;100197.19;4899109;29;20652;-72
2021/09/19 04:09:51;;;;;;;4.78;3.15;;;;;;;18.74;46.63;100194.41;4904218;29;20024;-70
2021/09/19 04:12:17;;;;;;;4.32;2.65;;;;;;;18.70;46.41;100196.31;4903924;29;20028;-71
2021/09/19 04:14:42;;;;;;;3.30;2.30;;;;;;;18.47;47.14;100207.81;4903000;29;20047;-73
2021/09/19 04:17:08;;;;;;;5.60;2.10;;;;;;;18.82;47.40;100199.47;4908425;29;20031;-73
2021/09/19 04:19:33;;;;;;;5.20;3.17;;;;;;;18.72;47.34;100177.66;4903275;29;20147;-73
2021/09/19 04:21:59;;;;;;;4.47;2.42;;;;;;;18.74;46.42;100181.97;4900736;29;20036;-71
2021/09/19 04:24:24;;;;;;;5.10;2.83;;;;;;;18.69;46.52;100194.59;4905490;29;20020;-74
2021/09/19 04:26:50;;;;;;;6.57;2.92;;;;;;;18.41;47.04;100204.50;4907240;29;20088;-74
2021/09/19 04:29:15;;;;;;;7.90;2.70;;;;;;;18.13;47.52;100169.13;4936179;28;20131;-72
2021/09/19 04:31:40;;;;;;;5.35;2.47;;;;;;;18.45;47.04;100180.41;4907286;29;21028;-71
2021/09/19 04:34:06;;;;;;;4.85;2.95;;;;;;;18.50;47.18;100197.06;4919349;29;20107;-73
2021/09/19 04:36:31;;;;;;;5.22;2.40;;;;;;;18.42;47.36;100212.38;4902057;29;20043;-72
2021/09/19 04:38:57;;;;;;;3.30;2.40;;;;;;;18.29;47.18;100201.34;4904305;29;20040;-71
2021/09/19 04:41:22;;;;;;;4.38;2.53;;;;;;;18.62;46.68;100216.13;4905938;29;20462;-71
2021/09/19 04:43:48;;;;;;;5.95;2.58;;;;;;;18.66;46.47;100212.41;4901931;29;20051;-71
2021/09/19 04:46:13;;;;;;;5.10;2.47;;;;;;;18.74;46.21;100213.03;4905933;29;20032;-69
2021/09/19 04:48:39;;;;;;;6.13;3.03;;;;;;;18.66;46.55;100223.06;4898201;29;20047;-72
2021/09/19 04:51:04;;;;;;;3.00;1.98;;;;;;;18.72;46.67;100220.19;4908387;29;20479;-72
2021/09/19 04:53:30;;;;;;;3.88;2.35;;;;;;;18.67;46.56;100180.47;4935340;29;20092;-73
2021/09/19 04:55:55;;;;;;;5.28;2.67;;;;;;;18.97;45.86;100225.50;4901450;29;20648;-72
2021/09/19 04:58:21;;;;;;;6.20;2.88;;;;;;;18.79;46.47;100220.84;4905145;29;20052;-71
2021/09/19 05:00:46;;;;;;;8.40;2.63;;;;;;;18.67;46.48;100232.78;4906706;29;20556;-71
2021/09/19 05:03:12;;;;;;;4.72;2.17;;;;;;;18.69;46.16;100217.66;4903710;29;20525;-70
2021/09/19 05:05:37;;;;;;;12.68;3.15;;;;;;;18.54;46.77;100216.41;4909193;29;20064;-75
2021/09/19 05:08:03;;;;;;;4.57;2.13;;;;;;;18.99;46.43;100234.28;4909968;29;20075;-71
2021/09/19 05:10:28;;;;;;;6.40;3.10;;;;;;;18.31;47.56;100239.34;4900021;29;20484;-72
2021/09/19 05:12:54;;;;;;;5.20;3.13;;;;;;;18.51;46.98;100203.22;4910879;29;20044;-70
2021/09/19 05:15:19;;;;;;;5.22;2.47;;;;;;;18.54;46.95;100235.00;4907108;29;20043;-72
2021/09/19 05:17:45;;;;;;;5.07;2.63;;;;;;;18.33;47.39;100241.94;4905265;29;20420;-71
2021/09/19 05:20:10;;;;;;;3.58;2.25;;;;;;;18.09;47.77;100204.69;4912727;29;20055;-70
2021/09/19 05:22:36;;;;;;;3.60;2.15;;;;;;;18.54;47.25;100197.78;4902678;29;20462;-72
2021/09/19 05:25:01;;;;;;;4.93;3.17;;;;;;;18.70;46.98;100217.56;4906764;29;20036;-71
2021/09/19 05:27:27;;;;;;;5.88;3.25;;;;;;;18.91;46.69;100212.41;4905532;29;20831;-71
2021/09/19 05:29:52;;;;;;;4.88;2.80;;;;;;;19.05;46.65;100206.59;4910313;29;20083;-70
2021/09/19 05:32:18;;;;;;;4.30;2.08;;;;;;;19.10;46.35;100205.47;4909731;29;20091;-71
2021/09/19 05:34:43;;;;;;;5.30;3.03;;;;;;;18.96;46.43;100211.34;4902503;29;20409;-71
2021/09/19 05:37:09;;;;;;;6.03;2.80;;;;;;;19.01;46.92;100228.88;4906378;29;20091;-73
2021/09/19 05:39:34;;;;;;;4.35;2.70;;;;;;;19.50;45.57;100221.66;4900529;29;20358;-72
2021/09/19 05:42:00;;;;;;;4.53;3.03;;;;;;;19.24;45.73;100204.94;4898157;29;20662;-72
2021/09/19 05:44:26;;;;;;;6.10;3.60;;;;;;;19.70;45.29;100226.22;4913170;29;20046;-71
2021/09/19 05:46:51;;;;;;;4.35;2.65;;;;;;;19.30;45.68;100203.84;4907734;29;20044;-71
2021/09/19 05:49:17;;;;;;;6.35;2.58;;;;;;;19.80;45.02;100231.09;4904419;29;20036;-70
2021/09/19 05:51:42;;;;;;;14.38;2.97;;;;;;;19.81;44.59;100216.88;4935450;28;20036;-71
2021/09/19 05:54:08;;;;;;;5.28;2.30;;;;;;;20.03;44.57;100223.97;4902244;29;20043;-71
2021/09/19 05:56:33;;;;;;;6.13;3.28;;;;;;;20.34;44.78;100225.31;4914032;29;20405;-72
2021/09/19 05:58:59;;;;;;;4.85;2.95;;;;;;;20.40;43.99;100219.72;4896048;29;20192;-72
2021/09/19 06:01:24;;;;;;;3.65;2.75;;;;;;;20.36;43.74;100212.78;4899930;29;20041;-72
2021/09/19 06:03:50;;;;;;;7.75;2.55;;;;;;;20.29;44.05;100213.97;4900178;29;20068;-73
2021/09/19 06:06:15;;;;;;;8.52;2.45;;;;;;;20.49;43.36;100215.78;4901106;29;20454;-70
2021/09/19 06:08:41;;;;;;;10.40;3.08;;;;;;;20.37;44.25;100214.50;4933967;28;20509;-70
2021/09/19 06:11:06;;;;;;;5.22;3.00;;;;;;;20.47;43.38;100196.34;4908596;29;20439;-72
2021/09/19 06:13:32;;;;;;;4.97;2.53;;;;;;;20.28;43.63;100186.47;4898316;29;20060;-71
2021/09/19 06:15:57;;;;;;;6.70;3.25;;;;;;;20.19;43.90;100209.06;4906585;29;20481;-69
2021/09/19 06:18:23;;;;;;;3.65;2.72;;;;;;;20.21;43.35;100182.34;4942131;29;20149;-72
2021/09/19 06:20:48;;;;;;;3.35;2.15;;;;;;;20.71;42.97;100210.38;4902274;29;20033;-73
2021/09/19 06:23:14;;;;;;;7.22;2.22;;;;;;;20.91;42.65;100213.03;4933889;28;20036;-71
2021/09/19 06:25:39;;;;;;;7.28;2.60;;;;;;;20.84;42.85;100200.91;4900209;29;20033;-72
2021/09/19 06:28:05;;;;;;;9.90;3.10;;;;;;;20.99;42.31;100189.50;4906463;29;20064;-72
2021/09/19 06:30:31;;;;;;;3.90;2.40;;;;;;;21.14;42.27;100201.28;4906620;29;20060;-71
2021/09/19 06:32:56;;;;;;;9.40;3.55;;;;;;;21.24;42.59;100221.25;4913879;29;20445;-73
2021/09/19 06:35:22;;;;;;;4.88;2.53;;;;;;;21.10;42.79;100198.84;4902265;29;20398;-70
2021/09/19 06:37:47;;;;;;;5.60;3.05;;;;;;;21.33;42.43;100216.41;4925872;29;20107;-73
2021/09/19 06:40:13;;;;;;;5.03;2.90;;;;;;;21.52;42.18;100211.06;4905328;29;20042;-72
2021/09/19 06:42:39;;;;;;;3.13;2.05;;;;;;;21.37;42.42;100207.31;4910695;29;20522;-71
2021/09/19 06:45:05;;;;;;;4.13;2.53;;;;;;;21.62;42.35;100226.56;4908405;29;20032;-73
2021/09/19 06:47:30;;;;;;;6.80;3.33;;;;;;;21.57;42.21;100199.25;4910098;29;20074;-73
2021/09/19 06:49:56;;;;;;;4.13;2.10;;;;;;;21.63;41.73;100206.97;4896961;29;20047;-73
2021/09/19 06:52:22;;;;;;;5.15;3.00;;;;;;;21.67;42.74;100231.69;4899227;29;20132;-72
2021/09/19 06:54:47;;;;;;;5.68;2.45;;;;;;;21.76;41.97;100209.00;4906100;29;20028;-71
2021/09/19 06:57:13;;;;;;;5.32;2.83;;;;;;;21.93;41.63;100207.22;4908909;29;20142;-72
2021/09/19 06:59:39;;;;;;;6.07;2.72;;;;;;;22.16;41.58;100228.38;4908894;29;20040;-71
2021/09/19 07:02:05;;;;;;;4.93;3.10;;;;;;;22.01;41.76;100230.91;4901738;29;20028;-72
2021/09/19 07:04:30;;;;;;;5.55;3.00;;;;;;;22.12;40.88;100195.59;4900416;29;20482;-74
2021/09/19 07:06:56;;;;;;;3.92;2.55;;;;;;;22.17;41.19;100224.75;4906514;29;20033;-76
2021/09/19 07:09:27;;;;;;;7.13;2.47;;;;;;;22.34;40.64;100203.41;4910858;29;20047;-72
2021/09/19 07:11:53;;;;;;;30.23;2.88;;;;;;;22.53;40.59;100214.00;4909522;29;20044;-74
2021/09/19 07:14:18;;;;;;;6.45;2.90;;;;;;;22.50;40.41;100223.06;4908873;29;20040;-73
2021/09/19 07:16:44;;;;;;;3.70;2.15;;;;;;;22.28;40.93;100222.44;4905222;29;20453;-73
2021/09/19 07:19:09;;;;;;;7.85;2.25;;;;;;;22.52;40.38;100199.78;4903207;29;20032;-72
2021/09/19 07:21:35;;;;;;;4.55;2.35;;;;;;;22.61;40.07;100195.72;4901505;29;20032;-72
2021/09/19 07:24:00;;;;;;;7.22;2.90;;;;;;;22.55;40.21;100212.97;4911803;29;20058;-73
2021/09/19 07:26:26;;;;;;;6.53;3.03;;;;;;;22.46;40.09;100225.97;4910002;29;20043;-72
2021/09/19 07:28:51;;;;;;;3.65;2.55;;;;;;;22.74;39.96;100225.38;4899931;29;20052;-71
2021/09/19 07:31:17;;;;;;;5.82;3.17;;;;;;;22.70;39.45;100216.63;4908358;29;20071;-73
2021/09/19 07:33:43;;;;;;;6.03;3.22;;;;;;;22.86;38.88;100213.16;4908935;29;20486;-72
2021/09/19 07:36:09;;;;;;;4.55;2.88;;;;;;;22.78;39.49;100216.25;4909578;29;20072;-70
2021/09/19 07:38:36;;;;;;;6.88;2.83;;;;;;;22.53;39.57;100222.03;4908981;29;20036;-72
2021/09/19 07:41:01;;;;;;;4.90;2.70;;;;;;;22.79;39.29;100222.44;4927351;29;20099;-71
2021/09/19 07:43:27;;;;;;;5.20;3.08;;;;;;;23.09;39.05;100225.31;4906756;29;20033;-72
2021/09/19 07:45:53;;;;;;;7.15;2.97;;;;;;;23.28;38.53;100215.28;4898447;29;20140;-74
2021/09/19 07:48:21;;;;;;;13.82;2.83;;;;;;;23.39;38.89;100210.19;4907791;29;20493;-70
2021/09/19 07:50:47;;;;;;;4.57;3.03;;;;;;;23.36;38.25;100218.38;4908531;29;20520;-71
2021/09/19 07:53:13;;;;;;;5.38;2.33;;;;;;;23.53;37.97;100225.50;4907232;29;20079;-71
2021/09/19 07:55:38;;;;;;;10.80;3.00;;;;;;;23.55;37.58;100202.16;4907570;29;20151;-71
2021/09/19 07:58:04;;;;;;;5.53;2.97;;;;;;;23.22;38.40;100198.72;4907248;29;20562;-75
2021/09/19 08:00:30;;;;;;;4.28;1.92;;;;;;;23.03;37.84;100226.50;4910170;29;20047;-79
2021/09/19 08:02:55;;;;;;;6.25;2.42;;;;;;;23.27;37.80;100201.97;4904490;29;20028;-70
2021/09/19 08:05:22;;;;;;;6.85;3.08;;;;;;;23.65;37.40;100223.94;4908119;29;20130;-71
2021/09/19 08:07:48;;;;;;;4.80;3.00;;;;;;;23.64;37.21;100219.50;4907240;29;20052;-68
2021/09/19 08:10:14;;;;;;;5.80;2.40;;;;;;;23.60;38.29;100191.19;4906526;29;20040;-70
2021/09/19 08:12:43;;;;;;;4.05;2.83;;;;;;;23.78;37.58;100224.09;4907225;29;20060;-70
2021/09/19 08:15:09;;;;;;;3.25;2.08;;;;;;;24.03;37.09;100212.81;4911134;29;20498;-70
2021/09/19 08:17:34;;;;;;;3.15;2.10;;;;;;;23.67;36.82;100218.47;4908217;29;20087;-69
2021/09/19 08:20:00;;;;;;;3.03;2.13;;;;;;;23.91;36.70;100200.16;4907706;29;20043;-78
2021/09/19 08:22:25;;;;;;;8.98;3.15;;;;;;;24.03;36.23;100202.09;4907272;29;20474;-68
2021/09/19 08:24:51;;;;;;;3.40;2.13;;;;;;;23.98;36.20;100207.72;4908637;29;20028;-69
2021/09/19 08:27:16;;;;;;;10.05;2.22;;;;;;;24.13;35.50;100215.81;4907171;29;20587;-68
2021/09/19 08:29:42;;;;;;;5.90;2.25;;;;;;;24.17;35.43;100196.75;4908856;29;20150;-71
2021/09/19 08:32:07;;;;;;;3.60;2.05;;;;;;;24.58;35.88;100212.22;4909845;29;20040;-71
2021/09/19 08:34:36;;;;;;;4.50;2.50;;;;;;;24.28;35.33;100195.25;4904879;29;20024;-72
2021/09/19 08:37:03;;;;;;;4.07;2.10;;;;;;;24.66;35.19;100213.56;4939348;28;20056;-70
2021/09/19 08:39:29;;;;;;;2.67;1.83;;;;;;;24.93;35.01;100210.94;4916974;29;20040;-74
2021/09/19 08:41:55;;;;;;;4.25;2.20;;;;;;;25.13;34.62;100210.56;4906135;29;20094;-70
2021/09/19 08:44:20;;;;;;;4.35;2.42;;;;;;;24.95;34.16;100196.47;4908173;29;20127;-68
2021/09/19 08:46:47;;;;;;;5.45;2.22;;;;;;;24.76;34.34;100196.75;4907914;29;20031;-69
2021/09/19 08:49:13;;;;;;;7.18;1.95;;;;;;;24.43;33.76;100180.91;4910277;29;20039;-69
2021/09/19 08:51:39;;;;;;;2.10;1.35;;;;;;;24.83;33.87;100198.09;4907936;29;20040;-74
2021/09/19 08:54:05;;;;;;;3.25;2.03;;;;;;;24.74;34.02;100196.00;4909339;29;20040;-71
2021/09/19 08:56:30;;;;;;;3.70;1.75;;;;;;;24.62;33.49;100168.09;4905557;29;20032;-75
2021/09/19 08:58:56;;;;;;;2.10;1.33;;;;;;;24.51;33.40;100175.09;4907765;29;20052;-70
2021/09/19 09:01:23;;;;;;;2.17;1.38;;;;;;;24.87;33.21;100187.19;4909603;29;20036;-74
2021/09/19 09:03:49;;;;;;;3.38;1.95;;;;;;;25.16;40.33;100164.69;4939218;28;20040;-68
2021/09/19 09:06:17;;;;;;;4.47;2.00;;;;;;;25.44;36.06;100168.31;4905853;29;20043;-65
2021/09/19 09:08:44;;;;;;;6.35;2.08;;;;;;;25.36;34.15;100174.19;4905818;29;20051;-69
2021/09/19 09:11:11;;;;;;;5.60;2.30;;;;;;;25.41;34.65;100180.13;4907604;29;20037;-66
2021/09/19 09:13:39;;;;;;;3.63;1.70;;;;;;;25.56;32.89;100174.69;4907988;29;20156;-66
2021/09/19 09:16:07;;;;;;;3.30;1.25;;;;;;;25.39;35.35;100165.91;4907592;29;20601;-67
2021/09/19 09:18:41;;;;;;;5.85;2.55;;;;;;;25.57;35.68;100163.84;4908083;29;20040;-68
2021/09/19 09:21:14;;;;;;;2.22;1.20;;;;;;;25.30;35.29;100162.97;4909331;29;20115;-67
2021/09/19 09:23:47;;;;;;;3.70;2.38;;;;;;;25.42;36.27;100164.84;4907642;29;20040;-67
2021/09/19 09:26:25;;;;;;;5.38;2.20;;;;;;;25.68;35.39;100149.69;4909795;29;20059;-66
2021/09/19 09:28:51;;;;;;;2.95;1.50;;;;;;;25.86;32.36;100175.34;4909866;29;20512;-65
2021/09/19 09:31:26;;;;;;;4.47;1.90;;;;;;;25.72;37.39;100159.25;4903408;29;20040;-66
2021/09/19 09:34:05;;;;;;;2.78;2.13;;;;;;;25.55;32.59;100159.53;4906044;29;20494;-65
2021/09/19 09:36:33;;;;;;;7.13;2.25;;;;;;;25.78;34.23;100164.25;4906835;29;20044;-67
2021/09/19 09:38:59;;;;;;;3.40;1.55;;;;;;;26.07;31.86;100159.59;4904596;29;20042;-68
2021/09/19 09:41:42;;;;;;;3.22;2.28;;;;;;;25.92;32.19;100154.38;4900400;29;20044;-66
2021/09/19 09:44:34;;;;;;;3.92;2.03;;;;;;;25.97;31.38;100158.50;4906678;29;20062;-66
2021/09/19 09:47:03;;;;;;;3.20;2.05;;;;;;;26.07;32.87;100148.81;4907133;29;20757;-70
2021/09/19 09:49:36;;;;;;;3.97;1.92;;;;;;;26.07;34.54;100146.13;4907961;29;20033;-66
2021/09/19 09:52:23;;;;;;;3.00;1.65;;;;;;;25.76;32.89;100125.84;4898476;29;20066;-68
2021/09/19 09:54:52;;;;;;;4.18;2.63;;;;;;;26.08;34.21;100142.50;4894178;29;20551;-69
2021/09/19 09:57:44;;;;;;;2.40;1.45;;;;;;;26.64;31.02;100141.31;4901561;29;20033;-66
2021/09/19 10:00:11;;;;;;;5.93;2.67;;;;;;;26.10;30.97;100143.22;4899657;29;20056;-69
2021/09/19 10:02:42;;;;;;;6.53;3.38;;;;;;;26.27;31.36;100127.75;4915718;29;20063;-68
2021/09/19 10:05:11;;;;;;;4.80;1.95;;;;;;;26.46;33.84;100130.03;4904291;29;20043;-66
2021/09/19 10:07:38;;;;;;;3.00;1.95;;;;;;;26.28;31.41;100111.50;4903841;29;20071;-64
2021/09/19 10:10:06;;;;;;;6.10;1.88;;;;;;;26.30;29.05;100128.41;4908595;29;20557;-66
2021/09/19 10:12:32;;;;;;;5.53;1.38;;;;;;;26.17;28.75;100129.38;4909538;29;20118;-67
2021/09/19 10:14:57;;;;;;;6.80;1.85;;;;;;;26.37;29.08;100126.16;4908867;29;20115;-67
2021/09/19 10:17:27;;;;;;;7.43;2.10;;;;;;;26.45;28.96;100118.38;4908625;29;20032;-67
2021/09/19 10:19:53;;;;;;;9.02;2.08;;;;;;;26.31;29.42;100091.59;4932794;29;20127;-67
2021/09/19 10:22:26;;;;;;;4.47;1.38;;;;;;;26.13;28.32;100098.25;4910009;29;20079;-66
2021/09/19 10:24:52;;;;;;;2.63;1.40;;;;;;;26.14;30.44;100125.06;4911848;29;20099;-68
2021/09/19 10:27:23;;;;;;;3.22;1.52;;;;;;;26.51;31.70;100125.19;4911312;29;20068;-66
2021/09/19 10:30:06;;;;;;;2.90;1.48;;;;;;;26.67;29.07;100116.91;4905786;29;20048;-65
2021/09/19 10:32:41;;;;;;;20.52;1.75;;;;;;;26.46;28.96;100130.88;4904929;29;20043;-67
2021/09/19 10:35:15;;;;;;;8.80;2.25;;;;;;;27.54;30.95;100118.56;4907009;29;20039;-67
2021/09/19 10:37:51;;;;;;;13.25;2.88;;;;;;;27.76;28.72;100119.59;4906704;29;20040;-65
2021/09/19 10:40:49;;;;;;;6.32;1.83;;;;;;;28.42;27.17;100111.78;4906059;29;20124;-66
2021/09/19 10:43:19;;;;;;;2.75;1.60;;;;;;;28.10;28.02;100090.06;4909063;29;20765;-64
2021/09/19 10:45:50;;;;;;;25.30;3.80;;;;;;;28.55;26.87;100109.00;4904577;29;20099;-66
2021/09/19 10:48:28;;;;;;;4.60;2.03;;;;;;;28.58;27.51;100100.66;4900470;29;20041;-65
2021/09/19 10:51:08;;;;;;;12.88;2.85;;;;;;;28.60;27.25;100090.59;4905255;29;20099;-67
2021/09/19 10:53:47;;;;;;;7.10;2.00;;;;;;;28.81;26.98;100093.41;4904915;29;20044;-65
2021/09/19 10:56:12;;;;;;;4.03;2.25;;;;;;;28.98;26.93;100089.31;4904188;29;20044;-66
2021/09/19 10:58:54;;;;;;;3.10;2.20;;;;;;;28.62;26.79;100089.50;4901799;29;20056;-69
2021/09/19 11:01:27;;;;;;;8.45;1.98;;;;;;;28.55;26.92;100069.38;4903171;29;20044;-61
2021/09/19 11:04:02;;;;;;;4.40;2.03;;;;;;;28.57;27.84;100085.47;4904664;29;20676;-68
2021/09/19 11:06:41;;;;;;;3.05;2.00;;;;;;;28.49;26.90;100085.19;4923544;29;20032;-66
2021/09/19 11:09:22;;;;;;;4.30;1.65;;;;;;;28.47;26.60;100073.66;4905214;29;20108;-64
2021/09/19 11:12:08;;;;;;;5.40;1.77;;;;;;;28.70;26.57;100079.91;4899764;29;20092;-69
2021/09/19 11:15:17;;;;;;;11.65;2.65;;;;;;;28.54;26.87;100066.78;4889249;29;20702;-69
2021/09/19 11:17:48;;;;;;;4.05;2.13;;;;;;;28.52;27.27;100056.13;4885948;29;20063;-73
2021/09/19 11:20:13;;;;;;;5.72;2.67;;;;;;;28.11;27.89;100062.09;4893054;29;20066;-67
2021/09/19 11:22:44;;;;;;;2.35;1.50;;;;;;;28.23;27.47;100053.03;4890609;29;20384;-73
2021/09/19 11:25:13;;;;;;;4.22;2.50;;;;;;;28.05;28.73;100055.34;4883330;29;20059;-68